Time;durP1;ratioP1;P1;durP2;ratioP2;P2;SDS_P1;SDS_P2;PMS_P1;PMS_P2;Temp;Humidity;BMP_temperature;BMP_pressure;BME280_temperature;BME280_humidity;BME280_pressure;Samples;Min_cycle;Max_cycle;Signal;HPM_P1;HPM_P2
2022/10/21 00:04:40;;;;;;;16.25;10.95;;;17.70;81.50;;;;;;10810454;33;20028;-76
2022/10/21 00:10:42;;;;;;;10.85;7.82;;;17.70;81.70;;;;;;10823332;33;20101;-76
2022/10/21 00:16:44;;;;;;;12.82;8.00;;;17.80;81.80;;;;;;10827340;33;20016;-76
2022/10/21 00:22:46;;;;;;;16.10;12.23;;;17.70;81.70;;;;;;10830890;27;20032;-76
2022/10/21 00:28:52;;;;;;;16.15;13.40;;;17.70;81.70;;;;;;10827030;33;20028;-76
2022/10/21 00:34:54;;;;;;;13.55;8.52;;;17.60;81.60;;;;;;10826903;33;20047;-76
2022/10/21 00:40:57;;;;;;;12.60;10.30;;;17.60;81.60;;;;;;10826643;33;20032;-76
2022/10/21 00:47:03;;;;;;;13.80;11.82;;;17.60;81.60;;;;;;10826453;33;20380;-76
2022/10/21 00:53:08;;;;;;;13.82;9.43;;;17.60;81.70;;;;;;10813151;33;20090;-77
2022/10/21 00:59:10;;;;;;;14.65;8.98;;;17.60;81.70;;;;;;10812693;32;20047;-76
2022/10/21 01:05:13;;;;;;;16.65;12.43;;;17.60;81.70;;;;;;10823543;33;20044;-77
2022/10/21 01:11:18;;;;;;;17.67;12.02;;;17.60;81.70;;;;;;10825909;33;20101;-77
2022/10/21 01:18:02;;;;;;;18.73;13.57;;;17.60;81.70;;;;;;10825611;33;20032;-77
2022/10/21 01:24:25;;;;;;;15.57;11.75;;;17.50;81.90;;;;;;10827330;32;20047;-76
2022/10/21 01:30:51;;;;;;;12.98;10.73;;;17.50;82.00;;;;;;10826563;32;20024;-76
2022/10/21 01:37:07;;;;;;;13.80;8.43;;;17.50;82.00;;;;;;10826329;32;20320;-76
2022/10/21 01:43:15;;;;;;;16.17;12.52;;;17.40;82.00;;;;;;10826010;32;20055;-76
2022/10/21 01:49:25;;;;;;;13.10;8.97;;;17.40;82.10;;;;;;10822960;33;20028;-77
2022/10/21 01:55:30;;;;;;;10.10;7.30;;;17.40;82.20;;;;;;10822775;33;20039;-77
2022/10/21 02:01:34;;;;;;;18.70;9.38;;;17.30;82.20;;;;;;10825567;32;20020;-76
2022/10/21 02:07:36;;;;;;;15.50;11.32;;;17.40;82.20;;;;;;10824403;33;20024;-76
2022/10/21 02:14:07;;;;;;;14.87;12.07;;;17.30;82.10;;;;;;10827552;32;20028;-77
2022/10/21 02:20:12;;;;;;;18.62;13.25;;;17.30;82.20;;;;;;10830874;33;20039;-76
2022/10/21 02:26:14;;;;;;;11.38;8.45;;;17.30;82.50;;;;;;10830370;33;20392;-76
2022/10/21 02:32:25;;;;;;;12.70;9.77;;;17.30;82.60;;;;;;10830225;33;20081;-77
2022/10/21 02:38:51;;;;;;;14.05;11.05;;;17.20;82.50;;;;;;10830345;33;20388;-77
2022/10/21 02:44:53;;;;;;;17.15;11.02;;;17.30;82.50;;;;;;10814175;33;20028;-77
2022/10/21 02:50:55;;;;;;;12.02;8.27;;;17.20;82.60;;;;;;10829824;33;20052;-76
2022/10/21 02:56:57;;;;;;;22.50;12.57;;;17.20;82.70;;;;;;10829607;33;20024;-77
2022/10/21 03:02:59;;;;;;;15.82;12.02;;;17.20;82.70;;;;;;10829373;33;20047;-76
2022/10/21 03:09:02;;;;;;;15.35;10.77;;;17.20;83.00;;;;;;10827143;33;20024;-76
2022/10/21 03:15:04;;;;;;;12.15;7.72;;;17.10;83.00;;;;;;10829350;33;20016;-76
2022/10/21 03:21:06;;;;;;;14.13;10.20;;;17.10;83.00;;;;;;10828939;32;20324;-76
2022/10/21 03:27:08;;;;;;;13.45;7.70;;;17.10;82.80;;;;;;10828670;32;20032;-76
2022/10/21 03:33:10;;;;;;;12.27;8.00;;;17.10;82.80;;;;;;10828630;33;20051;-76
2022/10/21 03:39:13;;;;;;;10.55;8.35;;;17.00;82.90;;;;;;10828379;33;20024;-76
2022/10/21 03:45:15;;;;;;;18.60;15.38;;;17.00;82.80;;;;;;10828980;33;20107;-76
2022/10/21 03:51:17;;;;;;;17.75;13.68;;;17.00;82.80;;;;;;10825691;33;20024;-76
2022/10/21 03:57:19;;;;;;;10.98;8.93;;;17.00;82.70;;;;;;10828130;33;20012;-76
2022/10/21 04:03:21;;;;;;;12.20;10.02;;;16.90;82.70;;;;;;10827829;33;20035;-76
2022/10/21 04:09:23;;;;;;;14.93;12.75;;;16.90;83.10;;;;;;10827751;33;20020;-76
2022/10/21 04:15:25;;;;;;;14.63;11.25;;;16.90;83.10;;;;;;10827510;33;20051;-76
2022/10/21 04:21:27;;;;;;;14.77;10.95;;;16.90;83.10;;;;;;10827117;33;20012;-76
2022/10/21 04:27:29;;;;;;;13.10;9.38;;;16.80;83.10;;;;;;10813959;33;20423;-77
2022/10/21 04:33:31;;;;;;;17.02;11.43;;;16.90;83.20;;;;;;10825506;33;20020;-76
2022/10/21 04:39:33;;;;;;;13.07;10.60;;;16.80;83.20;;;;;;10826893;33;20050;-77
2022/10/21 04:45:38;;;;;;;16.25;13.57;;;16.80;83.20;;;;;;10826506;33;20086;-76
2022/10/21 04:51:46;;;;;;;15.15;12.10;;;16.80;83.20;;;;;;10813418;33;20078;-77
2022/10/21 04:57:48;;;;;;;14.02;11.32;;;16.80;83.30;;;;;;10809144;32;20024;-76
2022/10/21 05:03:50;;;;;;;13.23;9.68;;;16.80;83.50;;;;;;10785573;33;20031;-77
2022/10/21 05:09:52;;;;;;;16.12;11.12;;;16.80;83.50;;;;;;10789416;33;20043;-77
2022/10/21 05:16:00;;;;;;;15.10;12.37;;;16.80;83.50;;;;;;10789175;33;20021;-76
2022/10/21 05:22:03;;;;;;;18.92;13.35;;;16.70;83.60;;;;;;10823678;33;20415;-77
2022/10/21 05:28:05;;;;;;;14.35;9.95;;;16.70;83.60;;;;;;10812291;33;20059;-77
2022/10/21 05:34:07;;;;;;;15.13;11.88;;;16.70;83.80;;;;;;10825487;33;20058;-76
2022/10/21 05:40:10;;;;;;;16.02;9.93;;;16.60;83.90;;;;;;10808291;33;20020;-76
2022/10/21 05:46:37;;;;;;;14.18;9.57;;;16.70;83.90;;;;;;10825248;32;20043;-77
2022/10/21 05:52:40;;;;;;;14.57;10.80;;;16.70;84.00;;;;;;10821039;33;20028;-77
2022/10/21 05:58:42;;;;;;;12.45;9.20;;;16.70;84.00;;;;;;10820818;33;20423;-77
2022/10/21 06:04:44;;;;;;;17.42;12.10;;;16.70;84.10;;;;;;10803000;32;20059;-72
2022/10/21 06:10:46;;;;;;;14.45;10.68;;;16.70;84.10;;;;;;10787223;33;20432;-72
2022/10/21 06:16:48;;;;;;;14.50;11.35;;;16.80;84.10;;;;;;10782954;33;20054;-72
2022/10/21 06:22:50;;;;;;;13.85;9.70;;;16.70;84.20;;;;;;10787006;32;20047;-72
2022/10/21 06:28:52;;;;;;;13.48;10.80;;;16.80;84.30;;;;;;10786181;33;20028;-72
2022/10/21 06:34:55;;;;;;;16.87;10.88;;;16.80;84.30;;;;;;10786478;33;20024;-71
2022/10/21 06:41:08;;;;;;;18.15;12.73;;;16.70;84.40;;;;;;10786647;33;20046;-72
2022/10/21 06:47:10;;;;;;;13.70;9.30;;;16.70;84.60;;;;;;10786812;33;20043;-72
2022/10/21 06:53:12;;;;;;;15.95;11.52;;;16.80;84.70;;;;;;10801146;33;20036;-72
2022/10/21 06:59:14;;;;;;;12.20;9.45;;;16.80;84.80;;;;;;10822236;33;20336;-72
2022/10/21 07:05:16;;;;;;;12.07;8.95;;;16.80;84.70;;;;;;10824397;33;20101;-72
2022/10/21 07:11:31;;;;;;;15.63;10.82;;;16.90;84.80;;;;;;10828316;33;20028;-72
2022/10/21 07:17:34;;;;;;;12.50;8.65;;;16.90;84.80;;;;;;10829065;33;20278;-72
2022/10/21 07:23:36;;;;;;;14.40;9.98;;;17.00;84.80;;;;;;10824674;33;20042;-72
2022/10/21 07:29:38;;;;;;;15.73;11.88;;;17.10;84.50;;;;;;10815602;33;20058;-72
2022/10/21 07:35:40;;;;;;;19.15;11.30;;;17.10;84.40;;;;;;10828481;33;20324;-71
2022/10/21 07:41:48;;;;;;;18.98;13.93;;;17.10;84.40;;;;;;10827730;32;20380;-72
2022/10/21 07:47:51;;;;;;;18.05;11.93;;;17.10;84.40;;;;;;10825165;33;20055;-71
2022/10/21 07:53:55;;;;;;;20.40;15.70;;;17.10;84.50;;;;;;10828014;33;20024;-71
2022/10/21 07:59:57;;;;;;;14.02;11.15;;;17.10;84.50;;;;;;10828173;32;20312;-71
2022/10/21 08:06:00;;;;;;;14.50;11.15;;;17.20;84.40;;;;;;10814574;33;20392;-71
2022/10/21 08:12:08;;;;;;;16.42;12.80;;;17.30;84.30;;;;;;10822513;33;20020;-71
2022/10/21 08:18:11;;;;;;;14.20;11.07;;;17.30;84.30;;;;;;10827454;33;20031;-71
2022/10/21 08:24:13;;;;;;;20.23;15.88;;;17.40;84.30;;;;;;10790342;27;1296673;-71
2022/10/21 08:30:15;;;;;;;22.45;16.85;;;17.50;84.10;;;;;;10826955;33;20019;-72
2022/10/21 08:36:20;;;;;;;19.25;15.98;;;17.50;83.90;;;;;;10813726;33;20021;-72
2022/10/21 08:42:23;;;;;;;14.95;13.13;;;17.60;83.80;;;;;;10826613;33;20043;-72
2022/10/21 08:48:54;;;;;;;15.80;11.77;;;17.60;83.80;;;;;;10826438;33;20039;-72
2022/10/21 08:55:01;;;;;;;13.32;10.27;;;17.80;83.50;;;;;;10826258;32;20382;-72
2022/10/21 09:01:34;;;;;;;18.77;10.23;;;17.90;83.60;;;;;;10826165;33;20054;-71
2022/10/21 09:08:03;;;;;;;18.65;10.68;;;18.10;83.30;;;;;;10825980;33;20046;-71
2022/10/21 09:14:33;;;;;;;16.67;10.20;;;18.20;83.20;;;;;;10805244;33;20031;-72
2022/10/21 09:20:38;;;;;;;16.73;10.32;;;18.20;83.10;;;;;;10823602;32;20035;-71
2022/10/21 09:26:44;;;;;;;14.70;10.90;;;18.20;82.90;;;;;;10824726;33;20031;-72
2022/10/21 09:32:49;;;;;;;13.68;9.00;;;18.20;83.10;;;;;;10812042;33;20086;-72
2022/10/21 09:38:56;;;;;;;17.62;9.98;;;18.40;82.80;;;;;;10824853;33;20042;-72
2022/10/21 09:44:58;;;;;;;20.33;16.08;;;18.40;82.70;;;;;;10824581;33;20031;-71
2022/10/21 09:51:08;;;;;;;15.82;10.20;;;18.50;82.70;;;;;;10824413;33;20016;-72
2022/10/21 09:57:32;;;;;;;21.00;13.95;;;18.50;82.40;;;;;;10824634;33;20016;-71
2022/10/21 10:03:44;;;;;;;16.70;10.82;;;18.60;82.20;;;;;;10824410;33;20028;-72
2022/10/21 10:10:03;;;;;;;12.57;8.90;;;18.70;82.20;;;;;;10815670;33;20408;-72
2022/10/21 10:16:21;;;;;;;10.95;8.25;;;18.70;82.30;;;;;;10819866;33;20028;-71
2022/10/21 10:22:23;;;;;;;17.90;12.68;;;18.70;82.00;;;;;;10823809;33;20054;-72
2022/10/21 10:28:25;;;;;;;14.93;11.40;;;18.80;81.70;;;;;;10824023;33;20020;-71
2022/10/21 10:34:33;;;;;;;17.90;12.20;;;18.90;81.40;;;;;;10826807;32;20063;-71
2022/10/21 10:40:40;;;;;;;16.27;10.23;;;19.00;81.10;;;;;;10830092;33;20020;-72
2022/10/21 10:46:43;;;;;;;14.07;9.90;;;19.10;81.30;;;;;;10798459;33;20324;-71
2022/10/21 10:52:45;;;;;;;15.27;11.18;;;19.30;81.10;;;;;;10790062;33;20118;-78
2022/10/21 10:59:09;;;;;;;12.80;9.88;;;19.40;81.10;;;;;;10798031;33;20399;-78
2022/10/21 11:05:30;;;;;;;17.77;11.75;;;19.40;80.50;;;;;;10794264;33;20078;-77
2022/10/21 11:11:47;;;;;;;17.37;12.40;;;19.40;80.50;;;;;;10790269;33;20040;-77
2022/10/21 11:18:00;;;;;;;14.55;10.15;;;19.30;80.50;;;;;;10792565;33;20089;-78
2022/10/21 11:24:38;;;;;;;21.90;11.23;;;19.20;80.90;;;;;;10790719;33;20028;-79
2022/10/21 11:30:58;;;;;;;16.83;13.82;;;19.20;81.10;;;;;;10787044;33;20050;-77
2022/10/21 11:37:15;;;;;;;19.70;12.25;;;19.20;81.30;;;;;;10791510;32;20107;-78
2022/10/21 11:43:46;;;;;;;14.70;9.05;;;19.10;81.30;;;;;;10809485;32;20071;-79
2022/10/21 11:50:10;;;;;;;19.95;14.30;;;19.10;81.50;;;;;;10675609;32;20044;-79
2022/10/21 11:56:39;;;;;;;19.50;11.60;;;19.10;81.80;;;;;;10702802;33;20029;-78
2022/10/21 12:02:45;;;;;;;15.38;10.10;;;19.10;81.70;;;;;;10674950;33;20064;-77
2022/10/21 12:08:57;;;;;;;17.55;10.60;;;19.10;81.80;;;;;;10678741;32;20131;-77
2022/10/21 12:15:20;;;;;;;21.95;11.75;;;19.10;81.80;;;;;;10680479;32;20068;-78
2022/10/21 12:21:28;;;;;;;18.65;13.57;;;19.10;82.10;;;;;;10675986;33;20041;-77
2022/10/21 12:27:54;;;;;;;15.45;9.65;;;19.10;82.20;;;;;;10797886;33;20050;-79
2022/10/21 12:33:57;;;;;;;13.75;10.18;;;19.10;82.10;;;;;;10809748;32;20036;-78
2022/10/21 12:40:10;;;;;;;17.73;10.38;;;19.00;82.10;;;;;;10806909;32;20036;-78
2022/10/21 12:46:13;;;;;;;14.50;9.27;;;19.10;81.80;;;;;;10797445;32;20028;-78
2022/10/21 12:52:22;;;;;;;12.68;8.80;;;19.10;81.80;;;;;;10797365;33;20054;-78
2022/10/21 12:58:44;;;;;;;13.27;9.77;;;19.10;81.50;;;;;;10788992;33;20040;-78
2022/10/21 13:04:49;;;;;;;14.85;9.93;;;19.20;81.40;;;;;;10785526;33;20024;-77
2022/10/21 13:17:39;;;;;;;13.45;10.85;;;19.30;81.30;;;;;;10789214;32;20031;-79
2022/10/21 13:23:43;;;;;;;13.13;10.02;;;19.20;81.30;;;;;;10788566;33;20047;-79
2022/10/21 13:29:48;;;;;;;13.88;9.80;;;19.20;81.40;;;;;;10784514;33;20047;-79
2022/10/21 13:35:53;;;;;;;12.10;8.85;;;19.20;81.40;;;;;;10788470;33;20020;-73
2022/10/21 13:42:26;;;;;;;13.18;9.90;;;19.20;81.30;;;;;;10787989;33;20024;-73
2022/10/21 13:48:59;;;;;;;14.52;9.27;;;19.30;81.20;;;;;;10786052;33;20094;-71
2022/10/21 13:55:03;;;;;;;16.37;12.88;;;19.30;81.10;;;;;;10795660;32;20044;-72
2022/10/21 14:01:13;;;;;;;16.05;11.35;;;19.50;80.80;;;;;;10817440;33;20404;-71
2022/10/21 14:07:34;;;;;;;22.00;14.48;;;19.50;80.50;;;;;;10782436;33;20020;-71
2022/10/21 14:13:38;;;;;;;17.30;10.68;;;19.60;80.30;;;;;;10777038;33;20380;-73
2022/10/21 14:19:40;;;;;;;10.85;9.32;;;19.50;80.30;;;;;;10783277;33;20340;-73
2022/10/21 14:25:42;;;;;;;13.85;9.98;;;19.50;80.30;;;;;;10783497;32;20051;-72
2022/10/21 14:31:51;;;;;;;11.93;9.32;;;19.50;80.30;;;;;;10770050;33;20033;-73
2022/10/21 14:38:28;;;;;;;10.30;7.65;;;19.50;80.30;;;;;;10777293;33;20043;-73
2022/10/21 14:44:31;;;;;;;13.30;6.80;;;19.50;80.40;;;;;;10786893;33;20029;-73
2022/10/21 14:50:59;;;;;;;10.63;7.55;;;19.50;80.30;;;;;;10809951;32;20063;-73
2022/10/21 14:57:03;;;;;;;11.88;8.70;;;19.60;80.30;;;;;;10823314;33;20046;-72
2022/10/21 15:03:06;;;;;;;17.83;13.23;;;19.70;80.20;;;;;;10823023;33;20054;-73
2022/10/21 15:09:11;;;;;;;11.73;8.57;;;19.70;80.40;;;;;;10823025;33;20086;-72
2022/10/21 15:15:38;;;;;;;12.32;8.48;;;19.60;80.30;;;;;;10802062;33;20343;-73
2022/10/21 15:22:04;;;;;;;10.57;7.75;;;19.60;80.40;;;;;;10827559;32;20023;-73
2022/10/21 15:28:17;;;;;;;13.30;8.05;;;19.50;80.30;;;;;;10828860;33;20016;-73
2022/10/21 15:34:19;;;;;;;10.40;7.93;;;19.50;80.50;;;;;;10828770;33;20024;-73
2022/10/21 15:40:22;;;;;;;16.42;8.07;;;19.40;80.60;;;;;;10828574;33;20019;-73
2022/10/21 15:46:25;;;;;;;17.40;9.60;;;19.40;80.70;;;;;;10811999;33;20058;-73
2022/10/21 15:52:57;;;;;;;14.25;9.18;;;19.40;80.70;;;;;;10828091;33;20055;-73
2022/10/21 15:58:59;;;;;;;18.65;8.82;;;19.30;80.60;;;;;;10827922;33;20054;-73
2022/10/21 16:05:01;;;;;;;14.20;9.10;;;19.30;80.90;;;;;;10827814;33;20061;-73
2022/10/21 16:11:03;;;;;;;11.93;8.55;;;19.30;80.90;;;;;;10827753;33;20020;-72
2022/10/21 16:17:05;;;;;;;17.27;10.55;;;19.30;80.90;;;;;;10827313;33;20066;-72
2022/10/21 16:23:09;;;;;;;15.25;9.20;;;19.20;80.90;;;;;;10830740;27;20043;-72
2022/10/21 16:29:15;;;;;;;18.48;11.30;;;19.20;81.00;;;;;;10826649;32;20439;-73
2022/10/21 16:35:20;;;;;;;13.62;9.40;;;19.10;81.00;;;;;;10826486;33;20078;-72
2022/10/21 16:41:27;;;;;;;15.30;10.57;;;19.10;81.00;;;;;;10826985;33;20050;-72
2022/10/21 16:47:29;;;;;;;13.52;8.43;;;19.00;81.00;;;;;;10826554;33;20422;-72
2022/10/21 16:53:32;;;;;;;15.00;9.52;;;19.00;81.10;;;;;;10812411;33;20032;-72
2022/10/21 16:59:34;;;;;;;12.27;8.45;;;19.00;81.00;;;;;;10826204;33;20414;-72
2022/10/21 17:05:36;;;;;;;13.02;7.22;;;19.00;81.00;;;;;;10821884;33;20028;-72
2022/10/21 17:11:48;;;;;;;12.68;9.23;;;18.90;81.00;;;;;;10814011;33;20344;-72
2022/10/21 17:17:50;;;;;;;13.95;9.63;;;18.90;81.20;;;;;;10825976;33;20423;-72
2022/10/21 17:23:53;;;;;;;11.88;8.38;;;18.90;81.10;;;;;;10826060;33;20430;-72
2022/10/21 17:29:55;;;;;;;9.57;5.60;;;18.80;81.10;;;;;;10825304;33;20055;-72
2022/10/21 17:35:57;;;;;;;17.33;7.37;;;18.80;81.10;;;;;;10823082;33;20032;-71
2022/10/21 17:42:18;;;;;;;19.50;7.57;;;18.80;81.10;;;;;;10824870;33;20112;-72
2022/10/21 17:48:26;;;;;;;20.42;9.98;;;18.80;81.10;;;;;;10820448;33;20031;-72
2022/10/21 17:54:29;;;;;;;14.87;8.57;;;18.80;81.20;;;;;;10824301;33;20086;-72
2022/10/21 18:00:31;;;;;;;12.85;8.70;;;18.70;81.20;;;;;;10824086;33;20317;-72
2022/10/21 18:06:33;;;;;;;12.70;7.60;;;18.70;81.30;;;;;;10824022;33;20032;-72
2022/10/21 18:12:35;;;;;;;13.40;7.68;;;18.70;81.30;;;;;;10820099;33;20074;-72
2022/10/21 18:18:38;;;;;;;12.45;7.18;;;18.70;81.20;;;;;;10824023;33;20064;-72
2022/10/21 18:24:44;;;;;;;13.43;8.55;;;18.70;81.20;;;;;;10823768;33;20028;-72
2022/10/21 18:30:46;;;;;;;9.75;7.43;;;18.70;81.40;;;;;;10823832;33;20336;-72
2022/10/21 18:36:48;;;;;;;10.30;7.03;;;18.60;81.40;;;;;;10819433;33;20059;-77
2022/10/21 18:42:50;;;;;;;11.90;8.40;;;18.60;81.40;;;;;;10819532;33;20029;-77
2022/10/21 18:48:52;;;;;;;13.68;10.05;;;18.60;81.40;;;;;;10824829;33;20309;-72
2022/10/21 18:54:55;;;;;;;9.63;6.45;;;18.60;81.50;;;;;;10825416;32;20407;-72
2022/10/21 19:00:57;;;;;;;12.30;7.43;;;18.60;81.50;;;;;;10829387;33;20024;-72
2022/10/21 19:07:00;;;;;;;12.52;7.87;;;18.60;81.40;;;;;;10829283;33;20028;-72
2022/10/21 19:13:07;;;;;;;14.50;8.48;;;18.60;81.40;;;;;;10812316;33;20435;-72
2022/10/21 19:19:10;;;;;;;8.52;5.62;;;18.60;81.50;;;;;;10828338;33;20035;-72
2022/10/21 19:25:12;;;;;;;12.77;8.93;;;18.60;81.50;;;;;;10828506;33;20031;-72
2022/10/21 19:31:15;;;;;;;11.30;6.47;;;18.50;81.50;;;;;;10824490;33;20036;-71
2022/10/21 19:37:24;;;;;;;15.77;9.95;;;18.50;81.60;;;;;;10814860;33;20058;-73
2022/10/21 19:43:26;;;;;;;21.17;10.07;;;18.50;81.70;;;;;;10828122;33;20074;-73
2022/10/21 19:49:29;;;;;;;17.95;8.52;;;18.40;82.00;;;;;;10823952;33;20070;-73
2022/10/21 19:55:31;;;;;;;12.10;9.45;;;18.40;82.00;;;;;;10823851;33;20023;-72
2022/10/21 20:01:43;;;;;;;11.18;5.75;;;18.40;82.00;;;;;;10824487;33;20036;-72
2022/10/21 20:07:46;;;;;;;11.77;8.85;;;18.40;81.90;;;;;;10827706;32;20063;-79
2022/10/21 20:13:50;;;;;;;15.52;9.23;;;18.40;81.90;;;;;;10823591;32;20062;-78
2022/10/21 20:19:53;;;;;;;14.95;11.38;;;18.50;82.00;;;;;;10827554;33;20024;-78
2022/10/21 20:25:57;;;;;;;10.27;7.28;;;18.50;82.00;;;;;;10811816;33;20047;-78
2022/10/21 20:31:59;;;;;;;12.70;8.98;;;18.40;81.90;;;;;;10804358;33;20036;-78
2022/10/21 20:38:01;;;;;;;13.52;9.10;;;18.40;82.00;;;;;;10790606;33;20046;-78
2022/10/21 20:44:07;;;;;;;12.68;10.13;;;18.40;82.00;;;;;;10785961;33;20036;-78
2022/10/21 20:50:11;;;;;;;13.80;10.75;;;18.40;82.20;;;;;;10840491;32;20388;-78
2022/10/21 20:56:13;;;;;;;18.05;13.38;;;18.30;82.40;;;;;;10776822;33;20397;-78
2022/10/21 21:02:15;;;;;;;19.12;12.23;;;18.30;82.30;;;;;;10789900;32;20400;-78
2022/10/21 21:08:17;;;;;;;14.50;11.30;;;18.30;82.30;;;;;;10789497;33;20028;-78
2022/10/21 21:14:40;;;;;;;13.73;8.95;;;18.30;82.40;;;;;;10776315;33;20051;-78
2022/10/21 21:20:43;;;;;;;12.37;9.95;;;18.30;82.30;;;;;;10771692;32;20035;-79
2022/10/21 21:26:47;;;;;;;12.57;8.23;;;18.30;82.30;;;;;;10788859;33;20024;-78
2022/10/21 21:32:50;;;;;;;16.55;10.52;;;18.30;82.30;;;;;;10784859;33;20058;-78
2022/10/21 21:38:53;;;;;;;15.57;11.43;;;18.30;82.30;;;;;;10788682;33;20028;-78
2022/10/21 21:44:55;;;;;;;13.18;8.88;;;18.30;82.40;;;;;;10788539;33;20032;-78
2022/10/21 21:51:03;;;;;;;11.98;8.52;;;18.30;82.40;;;;;;10775330;33;20042;-78
2022/10/21 21:57:05;;;;;;;14.80;9.13;;;18.30;82.50;;;;;;10775229;33;20024;-78
2022/10/21 22:03:07;;;;;;;15.18;8.23;;;18.30;82.60;;;;;;10788112;33;20016;-78
2022/10/21 22:09:10;;;;;;;16.37;12.00;;;18.20;82.70;;;;;;10771302;33;20051;-78
2022/10/21 22:15:13;;;;;;;17.00;12.68;;;18.20;82.70;;;;;;10774557;33;20020;-73
2022/10/21 22:21:17;;;;;;;12.05;7.10;;;18.20;82.70;;;;;;10787345;32;20025;-73
2022/10/21 22:27:19;;;;;;;22.58;11.27;;;18.20;82.80;;;;;;10787232;33;20063;-73
2022/10/21 22:33:44;;;;;;;16.42;10.73;;;18.20;82.70;;;;;;10793476;33;20316;-73
2022/10/21 22:39:46;;;;;;;15.05;10.70;;;18.20;82.70;;;;;;10793446;33;20032;-73
2022/10/21 22:45:48;;;;;;;17.45;13.27;;;18.20;82.70;;;;;;10793398;33;20079;-73
2022/10/21 22:51:52;;;;;;;15.93;13.23;;;18.20;82.80;;;;;;10793271;33;20004;-72
2022/10/21 22:57:54;;;;;;;21.35;14.00;;;18.10;82.90;;;;;;10793025;33;20024;-73
2022/10/21 23:04:01;;;;;;;13.62;9.77;;;18.00;83.20;;;;;;10792838;33;20040;-73
2022/10/21 23:10:05;;;;;;;21.70;14.10;;;17.90;83.30;;;;;;10792850;33;20389;-73
2022/10/21 23:16:07;;;;;;;15.20;11.48;;;18.00;83.40;;;;;;10792474;33;20020;-73
2022/10/21 23:22:09;;;;;;;13.32;10.23;;;17.90;83.50;;;;;;10787587;33;20047;-73
2022/10/21 23:28:12;;;;;;;15.95;10.18;;;17.90;83.60;;;;;;10790062;33;20021;-73
2022/10/21 23:34:14;;;;;;;16.85;12.77;;;17.90;83.60;;;;;;10789936;33;20013;-73
2022/10/21 23:40:16;;;;;;;13.82;11.20;;;18.00;83.70;;;;;;10789599;33;20016;-73
2022/10/21 23:46:19;;;;;;;14.48;10.65;;;17.90;83.80;;;;;;10789586;33;20469;-73
2022/10/21 23:52:21;;;;;;;16.00;10.77;;;17.90;83.80;;;;;;10789554;33;20344;-73
2022/10/21 23:58:23;;;;;;;17.23;13.75;;;17.80;83.90;;;;;;10788412;33;20324;-73
